Historyczne dane pomiarowe

Dodano dane terminowe – wersja testowa.

Dane z okresu 1951-2018

Wersja bazy: 1.27 [2018-11-28, lista zmian], aktualizacja planowana na 2018-12-07

Dane meteo z obszaru Polski uzyskane na podstawie danych udostępnionych przez Instytut Meteorologii i Gospodarki Wodnej – Państwowy Instytut Badawczy.

 

Wybierz Datę:    

       

TemperaturaWilgotnośćWiatrCiśnienieOpadyŚniegCzas trwania zjawisk
 Stacja t tx tn tng RH VA  wxwx mslp ppp RRR   cm mm wxwxwxwxwxwxwx
1960-11-08 4.5 5.2 3.5 3.6 93.5- 8.0 1.3---- 2.4------------
1960-11-09 4.2 6.5 1.3 -0.9 89.0- 6.7 0.0---- 0.2------------
1960-11-10 6.7 10.5 3.0 -0.4 78.8- 7.7 0.7---- 0.7------------
1960-11-11 6.5 6.8 4.8 4.4 98.0- 8.0 0.0---- 0.3------------
1960-11-12 6.9 11.5 4.6 5.2 86.0- 5.7 1.0---- 0.0------------
1960-11-13 10.9 13.5 4.4 1.7 74.3- 3.3 3.0---- 7.7------------
1960-11-14 6.7 11.3 5.5 6.9 96.8- 8.0 1.0---- 22.8------------
1960-11-15 5.4 6.1 4.9 4.8 97.3- 8.0 0.7---- 2.2------------
1960-11-16 6.1 7.4 4.8 0.4 90.0- 8.0 0.3---- 0.4------------
1960-11-17 4.0 5.7 3.0 3.4 95.8- 8.0 3.0---- 2.3------------
1960-11-18 4.1 6.3 1.2 -0.5 84.3- 6.7 1.3---- 0.5------------
1960-11-19 5.1 7.4 3.0 0.4 76.5- 3.7 4.3---- 0.0------------
1960-11-20 3.5 5.5 2.3 1.2 88.3- 8.0 4.3---- 2.7------------
1960-11-21 0.8 3.6 -1.2 -0.1 92.3- 5.3 2.0---- 0.0------------
1960-11-22 2.3 5.4 -3.5 -6.7 73.8- 6.3 0.3---- 0.0------------
1960-11-23 4.4 10.4 0.9 -0.8 80.0- 5.3 0.0---- 0.0------------
1960-11-24 3.8 8.4 0.6 -2.9 85.8- 5.3 0.0---- 0.0------------
1960-11-25 6.1 8.4 0.6 -1.0 77.5- 7.7 1.0---- 0.0------------
1960-11-26 6.7 7.4 3.7 3.3 76.0- 5.3 10.0---- 0.4------------
1960-11-27 7.5 8.3 5.7 3.1 76.3- 6.3 7.3---- 0.3------------
1960-11-28 6.2 8.7 4.3 5.3 83.3- 7.0 5.7---- 4.8------------
1960-11-29 1.4 4.5 -0.1 1.3 93.8- 8.0 0.3---- 7.6------------
1960-11-30 2.7 4.9 1.2 0.1 80.8- 7.0 3.0---- 5.3------------
1960-12-01 6.0 7.6 2.0 1.4 69.0- 4.0 7.0---- 0.0------------
1960-12-02 7.0 11.1 4.4 0.3 59.0- 0.0 4.7---- 0.0------------
1960-12-03 4.9 9.2 0.9 -2.5 66.0- 3.7 2.0---- 0.0------------
1960-12-04 6.2 7.7 3.1 1.4 68.8- 7.0 13.3---- 0.0------------
1960-12-05 8.8 11.1 6.1 4.7 73.0- 5.7 7.0---- 0.0------------
1960-12-06 11.1 11.9 7.4 5.0 62.3- 5.3 10.7---- 0.0------------
1960-12-07 9.1 14.3 5.4 5.3 56.8- 3.7 4.3---- 0.0------------
142.1 ms

 

Źródłem pochodzenia danych jest Instytut Meteorologii i Gospodarki Wodnej – Państwowy Instytut Badawczy. Dane Instytutu Meteorologii i Gospodarki Wodnej – Państwowego Instytutu Badawczego zostały przetworzone.

Dane źródłowe można odnaleźć na stronie https://dane.imgw.pl